Ely Airport Yelland Field
KELY : now visible

Airfield :











YOU CAN JOIN US ON...

 
LOGIN :

Register | Disclaimer

   EN    FR    IT 

 









Legend :    VFR   Marginal VFR   IFR   Intensive IFR   Very Intensive IFR
Visi :
Ceiling :
>= 8 km
>= 3000ft
5 to 8 km
1000 to 3000 ft
1500m to 5 km
500 to 1000 ft
800 to 1500m
200 to 500 ft
< 800m
< 200 ft
Symbols :   Thunderstorms  Fog  Heavy snow  Heavy precipitations  Wind > 20 kt






- Airport Elevation : 6259 ft


KELY - Ely Yelland Field

CURRENT METAR :
  • 261453Z AUTO 16006KT 10SM CLR M03/M05 A3012 RMK AO2 SLP211 T10281050 56004 $

EXPIRED METARs :
  • 261353Z AUTO 20003KT 10SM FEW100 M03/M05 A3012 RMK AO2 SLP212 T10331050 $
  • 261253Z AUTO 14005KT 10SM FEW100 M03/M05 A3013 RMK AO2 SLP203 T10331050 $

TAF KELY
Valid from the 26 at 12:00 until the 27 at 12:00 UTC


261130Z 2612/2712 18008KT P6SM SCT100 BKN150
FM262100 18008KT P6SM VCSH SCT020 OVC040
FM262300 22008KT 3SM -SHRA SCT010 OVC020
FM270300 25006KT P6SM VCSH BKN020



MET'MAP, your aeronautical weather chart ! - Copyright ORBIFLY December 2007 - Disclaimer

ORBIFLY MET'MAP TEAM :

Programming & Development : Alexandra Zaïnal
Concept & original design : Baudouin d'Aumeries
Assistance for programming : Marc-Olivier Méhu
Technical & hardware support : Manuel Goepfert

Contact : metmap@orbifly.com




SOURCES & CREDITS :

   NOAA       Earth
Advisory